Time;durP1;ratioP1;P1;durP2;ratioP2;P2;SDS_P1;SDS_P2;PMS_P1;PMS_P2;Temp;Humidity;BMP_temperature;BMP_pressure;BME280_temperature;BME280_humidity;BME280_pressure;Samples;Min_cycle;Max_cycle;Signal;HPM_P1;HPM_P2
2024/01/02 00:02:10;;;;;;;10.55;4.90;;;-1.10;99.90;;;;;;5082967;28;20038;-81
2024/01/02 00:04:36;;;;;;;8.80;5.05;;;-1.10;99.90;;;;;;5083769;28;20464;-81
2024/01/02 00:07:02;;;;;;;9.88;5.07;;;-1.00;99.90;;;;;;5084318;28;20028;-82
2024/01/02 00:09:28;;;;;;;10.82;5.20;;;-1.00;99.90;;;;;;5059697;28;20029;-81
2024/01/02 00:11:54;;;;;;;10.15;5.55;;;-1.00;99.90;;;;;;5076284;28;20492;-81
2024/01/02 00:14:20;;;;;;;10.23;5.43;;;-1.00;99.90;;;;;;5063114;28;20032;-81
2024/01/02 00:16:45;;;;;;;11.77;7.15;;;-1.00;99.90;;;;;;5062808;28;20427;-81
2024/01/02 00:19:11;;;;;;;12.30;7.55;;;-1.00;99.90;;;;;;5062843;28;20085;-81
2024/01/02 00:21:37;;;;;;;14.10;7.15;;;-1.00;99.90;;;;;;5062558;28;20551;-81
2024/01/02 00:24:03;;;;;;;16.83;8.63;;;-1.00;99.90;;;;;;5114731;28;20073;-81
2024/01/02 00:26:29;;;;;;;14.25;7.50;;;-1.00;99.90;;;;;;5082858;28;20558;-81
2024/01/02 00:28:54;;;;;;;13.00;7.25;;;-1.00;99.90;;;;;;5082455;28;20059;-81
2024/01/02 00:31:20;;;;;;;12.90;6.45;;;-1.00;99.90;;;;;;5099894;28;20032;-81
2024/01/02 00:33:46;;;;;;;13.90;7.60;;;-1.00;99.90;;;;;;5099704;28;20418;-81
2024/01/02 00:36:12;;;;;;;11.90;6.00;;;-1.00;99.90;;;;;;5117744;28;20034;-81
2024/01/02 00:38:38;;;;;;;9.98;5.88;;;-1.00;99.90;;;;;;5083275;28;20377;-81
2024/01/02 00:41:04;;;;;;;10.20;6.07;;;-1.00;99.90;;;;;;5097365;28;20490;-81
2024/01/02 00:43:30;;;;;;;10.15;6.15;;;-1.00;99.90;;;;;;5079163;28;20025;-81
2024/01/02 00:45:56;;;;;;;10.07;5.90;;;-1.00;99.90;;;;;;5062281;28;20024;-81
2024/01/02 00:48:22;;;;;;;10.07;5.38;;;-1.00;99.90;;;;;;5097415;28;20024;-81
2024/01/02 00:50:48;;;;;;;10.25;5.15;;;-1.00;99.90;;;;;;5046084;28;20024;-81
2024/01/02 00:53:13;;;;;;;9.95;5.20;;;-1.00;99.90;;;;;;5078961;28;20024;-81
2024/01/02 00:55:39;;;;;;;11.55;5.80;;;-1.00;99.90;;;;;;5079518;28;20028;-82
2024/01/02 00:58:05;;;;;;;10.27;5.70;;;-1.00;99.90;;;;;;5079384;28;20032;-82
2024/01/02 01:00:31;;;;;;;10.68;5.78;;;-1.00;99.90;;;;;;5063368;28;20028;-82
2024/01/02 01:02:56;;;;;;;9.10;4.82;;;-1.10;99.90;;;;;;5079700;28;20031;-82
2024/01/02 01:05:22;;;;;;;9.82;5.05;;;-1.10;99.90;;;;;;5045935;28;20032;-82
2024/01/02 01:07:50;;;;;;;8.85;4.78;;;-1.10;99.90;;;;;;5092179;28;20472;-82
2024/01/02 01:10:16;;;;;;;11.98;5.53;;;-1.10;99.90;;;;;;5062765;28;20031;-82
2024/01/02 01:12:42;;;;;;;11.43;5.97;;;-1.10;99.90;;;;;;5062608;28;20024;-82
2024/01/02 01:15:08;;;;;;;13.13;6.03;;;-1.10;99.90;;;;;;5062283;28;20032;-82
2024/01/02 01:17:33;;;;;;;9.45;5.15;;;-1.20;99.90;;;;;;5079248;28;20031;-82
2024/01/02 01:19:59;;;;;;;11.32;6.20;;;-1.20;99.90;;;;;;5078880;28;20025;-82
2024/01/02 01:22:25;;;;;;;11.55;5.80;;;-1.20;99.90;;;;;;5045818;28;20039;-82
2024/01/02 01:24:50;;;;;;;11.15;5.78;;;-1.30;99.90;;;;;;5046048;28;20395;-82
2024/01/02 01:27:16;;;;;;;9.98;5.28;;;-1.30;99.90;;;;;;5078988;28;20100;-82
2024/01/02 01:29:42;;;;;;;13.27;5.75;;;-1.30;99.90;;;;;;5065561;28;20032;-82
2024/01/02 01:32:09;;;;;;;10.65;5.30;;;-1.30;99.90;;;;;;5065299;28;20036;-82
2024/01/02 01:34:34;;;;;;;11.40;5.75;;;-1.30;99.90;;;;;;5083322;28;20031;-82
2024/01/02 01:37:00;;;;;;;9.45;4.78;;;-1.20;99.90;;;;;;5096993;28;20035;-83
2024/01/02 01:39:26;;;;;;;9.50;4.78;;;-1.20;99.90;;;;;;5062385;28;20184;-82
2024/01/02 01:41:52;;;;;;;11.30;5.07;;;-1.30;99.90;;;;;;5045509;28;20024;-83
2024/01/02 01:44:18;;;;;;;11.63;6.18;;;-1.30;99.90;;;;;;5062086;28;20032;-82
2024/01/02 01:46:43;;;;;;;11.50;5.30;;;-1.30;99.90;;;;;;5062234;28;20408;-82
2024/01/02 01:49:11;;;;;;;11.23;5.20;;;-1.30;99.90;;;;;;5078768;28;20052;-82
2024/01/02 01:51:42;;;;;;;10.20;4.65;;;-1.30;99.90;;;;;;5078513;28;20028;-82
2024/01/02 01:54:13;;;;;;;9.05;4.65;;;-1.30;99.90;;;;;;5078621;28;20114;-82
2024/01/02 01:56:39;;;;;;;7.30;3.70;;;-1.30;99.90;;;;;;5078943;28;20028;-82
2024/01/02 01:59:06;;;;;;;8.38;4.93;;;-1.40;99.90;;;;;;5080125;28;20035;-83
2024/01/02 02:01:33;;;;;;;10.52;4.93;;;-1.40;99.90;;;;;;5080085;28;20032;-82
2024/01/02 02:04:00;;;;;;;7.65;4.22;;;-1.40;99.90;;;;;;5097450;28;20081;-82
2024/01/02 02:06:26;;;;;;;10.43;5.05;;;-1.40;99.90;;;;;;5097157;28;20023;-82
2024/01/02 02:08:52;;;;;;;10.05;5.47;;;-1.40;99.90;;;;;;5078584;28;20066;-82
2024/01/02 02:11:19;;;;;;;11.20;5.13;;;-1.40;99.90;;;;;;5060457;28;20039;-82
2024/01/02 02:13:46;;;;;;;8.32;4.93;;;-1.40;99.90;;;;;;5076676;28;20069;-82
2024/01/02 02:16:13;;;;;;;8.82;4.75;;;-1.40;99.90;;;;;;5074576;28;20035;-82
2024/01/02 02:18:39;;;;;;;8.90;5.47;;;-1.40;99.90;;;;;;5058068;28;20097;-82
2024/01/02 02:21:04;;;;;;;7.45;4.50;;;-1.50;99.90;;;;;;5039821;28;20060;-82
2024/01/02 02:23:30;;;;;;;7.93;4.22;;;-1.60;99.90;;;;;;5023502;28;20025;-82
2024/01/02 02:25:56;;;;;;;9.23;4.32;;;-1.70;99.90;;;;;;5040017;28;20021;-82
2024/01/02 02:28:21;;;;;;;9.27;4.72;;;-1.70;99.90;;;;;;5023274;28;20059;-82
2024/01/02 02:30:47;;;;;;;11.07;5.20;;;-1.80;99.90;;;;;;5040478;28;20487;-82
2024/01/02 02:33:13;;;;;;;13.20;5.80;;;-1.90;99.90;;;;;;5090664;28;20391;-82
2024/01/02 02:35:38;;;;;;;11.45;4.88;;;-1.80;99.90;;;;;;5080047;28;20032;-82
2024/01/02 02:38:04;;;;;;;11.93;5.68;;;-1.70;99.90;;;;;;5085625;28;20553;-82
2024/01/02 02:40:30;;;;;;;8.85;5.07;;;-1.70;99.90;;;;;;5059674;28;20484;-82
2024/01/02 02:42:55;;;;;;;9.13;4.07;;;-1.70;99.90;;;;;;5076505;28;20115;-82
2024/01/02 02:45:21;;;;;;;9.98;5.13;;;-1.70;99.90;;;;;;5076330;28;20024;-82
2024/01/02 02:47:47;;;;;;;9.30;5.10;;;-1.60;99.90;;;;;;5057262;28;20043;-82
2024/01/02 02:50:12;;;;;;;10.82;5.55;;;-1.60;99.90;;;;;;5039349;28;20029;-82
2024/01/02 02:52:38;;;;;;;11.73;5.47;;;-1.60;99.90;;;;;;5039666;28;20071;-82
2024/01/02 02:55:04;;;;;;;12.73;6.95;;;-1.60;99.90;;;;;;5055941;28;20427;-82
2024/01/02 02:57:30;;;;;;;10.20;5.90;;;-1.60;99.90;;;;;;5039606;28;20029;-82
2024/01/02 02:59:56;;;;;;;11.52;5.53;;;-1.70;99.90;;;;;;5056044;28;20166;-82
2024/01/02 03:02:21;;;;;;;10.07;5.72;;;-1.80;99.90;;;;;;5039482;28;20081;-82
2024/01/02 03:04:47;;;;;;;11.90;5.63;;;-1.80;99.90;;;;;;5056234;28;20078;-82
2024/01/02 03:07:13;;;;;;;10.27;4.68;;;-1.90;99.90;;;;;;5043330;28;20032;-83
2024/01/02 03:09:43;;;;;;;10.13;5.40;;;-1.90;99.90;;;;;;5043005;28;20032;-82
2024/01/02 03:12:11;;;;;;;8.63;4.72;;;-1.90;99.90;;;;;;5061125;28;20077;-82
2024/01/02 03:14:37;;;;;;;7.97;4.28;;;-1.90;99.90;;;;;;5094354;28;20026;-82
2024/01/02 03:17:04;;;;;;;8.75;4.30;;;-1.90;99.90;;;;;;5076374;28;20032;-82
2024/01/02 03:19:29;;;;;;;7.95;3.88;;;-1.80;99.90;;;;;;5059701;28;20556;-82
2024/01/02 03:21:55;;;;;;;8.07;3.78;;;-1.80;99.90;;;;;;5075810;28;20111;-82
2024/01/02 03:24:21;;;;;;;9.48;4.55;;;-1.70;99.90;;;;;;5042870;28;20372;-82
2024/01/02 03:26:47;;;;;;;8.63;4.47;;;-1.70;99.90;;;;;;5059467;28;20478;-82
2024/01/02 03:29:13;;;;;;;8.38;4.30;;;-1.70;99.90;;;;;;5039802;28;20079;-83
2024/01/02 03:31:38;;;;;;;9.98;4.78;;;-1.70;99.90;;;;;;5056409;28;20033;-82
2024/01/02 03:34:04;;;;;;;8.02;4.22;;;-1.60;99.90;;;;;;5024002;28;20033;-82
2024/01/02 03:36:29;;;;;;;10.25;4.85;;;-1.60;99.90;;;;;;5042974;28;20028;-82
2024/01/02 03:38:55;;;;;;;10.48;4.72;;;-1.70;99.90;;;;;;5058467;28;20025;-82
2024/01/02 03:41:21;;;;;;;9.57;4.40;;;-1.70;99.90;;;;;;5058004;28;20028;-82
2024/01/02 03:43:46;;;;;;;8.65;4.70;;;-1.60;99.90;;;;;;5028137;28;20049;-83
2024/01/02 03:46:12;;;;;;;7.25;3.83;;;-1.60;99.90;;;;;;5063482;28;20024;-82
2024/01/02 03:48:38;;;;;;;7.13;4.00;;;-1.60;99.90;;;;;;5080062;28;20024;-82
2024/01/02 03:51:04;;;;;;;10.10;3.72;;;-1.60;99.90;;;;;;5063396;28;20040;-82
2024/01/02 03:53:30;;;;;;;9.57;3.97;;;-1.70;99.90;;;;;;5088439;28;20450;-82
2024/01/02 03:55:56;;;;;;;7.40;3.65;;;-1.70;99.90;;;;;;5079982;28;20062;-82
2024/01/02 03:58:23;;;;;;;6.68;3.47;;;-1.60;99.90;;;;;;5098186;28;20034;-82
2024/01/02 04:00:50;;;;;;;9.35;4.82;;;-1.70;99.90;;;;;;5080015;28;20036;-82
2024/01/02 04:03:16;;;;;;;7.22;4.35;;;-1.70;99.90;;;;;;5098525;28;20072;-82
2024/01/02 04:05:42;;;;;;;7.70;4.90;;;-1.70;99.90;;;;;;5046979;28;20044;-82
2024/01/02 04:08:07;;;;;;;11.43;5.03;;;-1.80;99.90;;;;;;5081702;28;20111;-82
2024/01/02 04:10:34;;;;;;;9.52;4.70;;;-1.80;99.90;;;;;;5063410;28;20020;-82
2024/01/02 04:13:00;;;;;;;8.85;4.53;;;-1.80;99.90;;;;;;5047362;28;20118;-82
2024/01/02 04:15:26;;;;;;;8.00;4.18;;;-1.70;99.90;;;;;;5064143;28;20048;-82
2024/01/02 04:17:52;;;;;;;8.32;4.07;;;-1.80;99.90;;;;;;5080773;28;20361;-83
2024/01/02 04:20:17;;;;;;;6.53;3.58;;;-1.80;99.90;;;;;;5080164;28;20097;-83
2024/01/02 04:22:43;;;;;;;9.90;3.72;;;-1.80;99.90;;;;;;5047184;28;20078;-83
2024/01/02 04:25:09;;;;;;;8.00;4.63;;;-1.80;99.90;;;;;;5102035;28;20051;-83
2024/01/02 04:27:35;;;;;;;7.57;3.95;;;-1.80;99.90;;;;;;5084056;28;20058;-83
2024/01/02 04:30:02;;;;;;;10.05;4.28;;;-1.80;99.90;;;;;;5083498;28;20055;-83
2024/01/02 04:32:28;;;;;;;7.43;3.78;;;-1.80;99.90;;;;;;5100438;28;20038;-82
2024/01/02 04:34:53;;;;;;;6.93;3.92;;;-1.80;99.90;;;;;;5089602;28;20497;-82
2024/01/02 04:37:19;;;;;;;7.22;3.20;;;-1.70;99.90;;;;;;5075528;28;20051;-83
2024/01/02 04:39:45;;;;;;;5.35;3.28;;;-1.70;99.90;;;;;;5060075;28;20032;-82
2024/01/02 04:42:10;;;;;;;5.25;3.00;;;-1.70;99.90;;;;;;5072331;28;20032;-83
2024/01/02 04:44:36;;;;;;;6.57;3.42;;;-1.70;99.90;;;;;;5043326;28;20024;-83
2024/01/02 04:47:02;;;;;;;12.27;6.20;;;-1.70;99.90;;;;;;5043117;28;20025;-83
2024/01/02 04:49:28;;;;;;;10.98;4.82;;;-1.80;99.90;;;;;;5060170;28;20431;-83
2024/01/02 04:51:54;;;;;;;7.93;4.45;;;-1.80;99.90;;;;;;5042826;28;20055;-83
2024/01/02 04:54:20;;;;;;;8.40;4.15;;;-1.80;99.90;;;;;;5042821;28;20078;-83
2024/01/02 04:56:46;;;;;;;7.20;3.80;;;-1.90;99.90;;;;;;5059553;28;20024;-82
2024/01/02 04:59:11;;;;;;;7.50;4.18;;;-1.80;99.90;;;;;;5043168;28;20029;-82
2024/01/02 05:01:37;;;;;;;8.57;3.90;;;-1.90;99.90;;;;;;5042898;28;20081;-82
2024/01/02 05:04:04;;;;;;;6.82;4.15;;;-1.90;99.90;;;;;;5076340;28;20385;-82
2024/01/02 05:06:30;;;;;;;8.95;3.70;;;-1.80;99.90;;;;;;5059390;28;20025;-82
2024/01/02 05:08:56;;;;;;;7.65;3.58;;;-1.80;99.90;;;;;;5046307;28;20036;-82
2024/01/02 05:11:22;;;;;;;49.65;14.57;;;-1.80;99.90;;;;;;5079350;28;20028;-82
2024/01/02 05:13:48;;;;;;;86.07;23.75;;;-1.80;99.90;;;;;;5079423;28;20404;-82
2024/01/02 05:16:14;;;;;;;51.22;17.02;;;-1.80;99.90;;;;;;5069176;28;20041;-82
2024/01/02 05:18:40;;;;;;;18.00;7.57;;;-1.80;99.90;;;;;;5117850;28;20034;-82
2024/01/02 05:21:07;;;;;;;12.13;4.55;;;-1.80;99.90;;;;;;5099401;28;20050;-83
2024/01/02 05:23:33;;;;;;;8.55;4.10;;;-1.80;99.90;;;;;;5082232;28;20027;-82
2024/01/02 05:25:59;;;;;;;6.72;3.55;;;-1.80;99.90;;;;;;5081344;28;20476;-82
2024/01/02 05:28:24;;;;;;;8.38;3.30;;;-1.80;99.90;;;;;;5098326;28;20024;-84
2024/01/02 05:30:50;;;;;;;6.55;2.40;;;-1.90;99.90;;;;;;5097543;28;20043;-84
2024/01/02 05:33:16;;;;;;;6.63;2.70;;;-1.90;99.90;;;;;;5065672;28;20032;-84
2024/01/02 05:35:41;;;;;;;6.28;2.90;;;-1.90;99.90;;;;;;5040868;28;20143;-83
2024/01/02 05:38:07;;;;;;;7.57;3.15;;;-1.90;99.90;;;;;;5068038;28;20068;-83
2024/01/02 05:40:33;;;;;;;5.20;3.08;;;-1.80;99.90;;;;;;5098922;28;20031;-83
2024/01/02 05:42:58;;;;;;;8.88;3.97;;;-1.80;99.90;;;;;;5053263;28;20024;-83
2024/01/02 05:45:24;;;;;;;6.28;3.78;;;-1.80;99.90;;;;;;5040363;28;20028;-84
2024/01/02 05:47:50;;;;;;;6.20;3.58;;;-1.70;99.90;;;;;;5056779;28;20024;-83
2024/01/02 05:50:15;;;;;;;6.53;3.65;;;-1.70;99.90;;;;;;5074569;28;20064;-84
2024/01/02 05:52:44;;;;;;;7.40;3.40;;;-1.60;99.90;;;;;;5074517;28;20024;-83
2024/01/02 05:55:10;;;;;;;7.63;4.45;;;-1.60;99.90;;;;;;5040300;28;20032;-84
2024/01/02 05:57:36;;;;;;;6.55;3.92;;;-1.60;99.90;;;;;;5063911;28;20027;-84
2024/01/02 06:00:02;;;;;;;6.60;3.72;;;-1.60;99.90;;;;;;5096640;28;20031;-84
2024/01/02 06:02:28;;;;;;;7.22;4.25;;;-1.60;99.90;;;;;;5063202;28;20039;-84
2024/01/02 06:04:53;;;;;;;6.55;3.95;;;-1.60;99.90;;;;;;5096785;28;20523;-84
2024/01/02 06:07:19;;;;;;;6.32;3.42;;;-1.50;99.90;;;;;;5091971;28;20586;-84
2024/01/02 06:09:45;;;;;;;6.43;3.30;;;-1.60;99.90;;;;;;5059614;28;20056;-84
2024/01/02 06:12:10;;;;;;;9.38;5.38;;;-1.60;99.90;;;;;;5059754;28;20099;-84
2024/01/02 06:14:37;;;;;;;5.68;3.63;;;-1.60;99.90;;;;;;5059761;28;20028;-84
2024/01/02 06:17:03;;;;;;;6.32;3.40;;;-1.60;99.90;;;;;;5076328;28;20027;-84
2024/01/02 06:19:29;;;;;;;7.45;3.47;;;-1.70;99.90;;;;;;5059736;28;20028;-84
2024/01/02 06:21:55;;;;;;;7.80;4.03;;;-1.70;99.90;;;;;;5086939;28;20031;-84
2024/01/02 06:24:21;;;;;;;9.20;4.38;;;-1.60;99.90;;;;;;5093292;28;20525;-83
2024/01/02 06:26:47;;;;;;;7.95;4.40;;;-1.60;99.90;;;;;;5094390;28;20476;-84
2024/01/02 06:29:12;;;;;;;11.55;5.07;;;-1.60;99.90;;;;;;5059641;28;20024;-84
2024/01/02 06:31:38;;;;;;;12.95;6.93;;;-1.60;99.90;;;;;;5076005;28;20047;-83
2024/01/02 06:34:04;;;;;;;10.55;5.32;;;-1.60;99.90;;;;;;5076350;28;20036;-83
2024/01/02 06:36:29;;;;;;;7.30;3.92;;;-1.60;99.90;;;;;;5059800;28;20063;-84
2024/01/02 06:38:55;;;;;;;9.70;3.80;;;-1.50;99.90;;;;;;5075938;28;20108;-83
2024/01/02 06:41:21;;;;;;;6.57;3.28;;;-1.50;99.90;;;;;;5056406;28;20070;-82
2024/01/02 06:43:46;;;;;;;5.97;2.85;;;-1.50;99.90;;;;;;5039831;28;20025;-82
2024/01/02 06:46:12;;;;;;;5.07;2.60;;;-1.50;99.90;;;;;;5074195;28;20021;-82
2024/01/02 06:48:39;;;;;;;4.60;2.40;;;-1.50;99.90;;;;;;5056578;28;20366;-82
2024/01/02 06:51:06;;;;;;;5.05;2.20;;;-1.50;99.90;;;;;;5039957;28;20039;-82
2024/01/02 06:53:31;;;;;;;6.65;2.75;;;-1.50;99.90;;;;;;5056616;28;20107;-82
2024/01/02 06:55:57;;;;;;;5.80;2.25;;;-1.50;99.90;;;;;;5074660;28;20075;-82
2024/01/02 06:58:23;;;;;;;4.28;1.98;;;-1.50;99.90;;;;;;5056572;28;20028;-82
2024/01/02 07:00:48;;;;;;;4.10;2.20;;;-1.60;99.90;;;;;;5074299;28;20036;-82
2024/01/02 07:03:14;;;;;;;7.25;3.42;;;-1.60;99.90;;;;;;5056092;28;20480;-82
2024/01/02 07:05:40;;;;;;;6.93;3.45;;;-1.50;99.90;;;;;;5039368;28;20489;-81
2024/01/02 07:08:05;;;;;;;6.45;2.92;;;-1.50;99.90;;;;;;5055854;28;20528;-82
2024/01/02 07:10:31;;;;;;;5.95;3.35;;;-1.50;99.90;;;;;;5056452;28;20078;-81
2024/01/02 07:12:57;;;;;;;6.70;3.05;;;-1.50;99.90;;;;;;5039637;28;20203;-82
2024/01/02 07:15:22;;;;;;;6.75;2.92;;;-1.50;99.90;;;;;;5023425;28;20531;-82
2024/01/02 07:17:48;;;;;;;5.50;2.88;;;-1.50;99.90;;;;;;5059887;28;20071;-82
2024/01/02 07:20:14;;;;;;;6.43;4.00;;;-1.40;99.90;;;;;;5078312;28;20032;-82
2024/01/02 07:22:40;;;;;;;5.80;3.20;;;-1.40;99.90;;;;;;5060124;28;20063;-82
2024/01/02 07:25:06;;;;;;;9.98;5.05;;;-1.40;99.90;;;;;;5060408;28;20032;-82
2024/01/02 07:27:31;;;;;;;8.75;5.55;;;-1.40;99.90;;;;;;5027815;28;20115;-82
2024/01/02 07:29:57;;;;;;;8.98;4.90;;;-1.40;99.90;;;;;;5059886;28;20036;-82
2024/01/02 07:32:23;;;;;;;8.02;4.38;;;-1.40;99.90;;;;;;5060734;28;20033;-81
2024/01/02 07:34:48;;;;;;;7.10;4.07;;;-1.40;99.90;;;;;;5078683;28;20036;-82
2024/01/02 07:37:14;;;;;;;11.20;4.38;;;-1.40;99.90;;;;;;5067039;28;20031;-81
2024/01/02 07:39:40;;;;;;;10.07;5.40;;;-1.40;99.90;;;;;;5118715;28;20031;-82
2024/01/02 07:42:08;;;;;;;11.35;5.40;;;-1.40;99.90;;;;;;5118608;28;20031;-82
2024/01/02 07:44:34;;;;;;;12.95;5.78;;;-1.30;99.90;;;;;;5100506;28;20077;-82
2024/01/02 07:47:00;;;;;;;7.75;4.40;;;-1.30;99.90;;;;;;5088313;28;20024;-82
2024/01/02 07:49:26;;;;;;;8.43;4.43;;;-1.30;99.90;;;;;;5080814;28;20020;-81
2024/01/02 07:51:52;;;;;;;9.00;4.57;;;-1.30;99.90;;;;;;5100305;28;20027;-81
2024/01/02 07:54:18;;;;;;;11.55;5.97;;;-1.30;99.90;;;;;;5100449;28;20043;-81
2024/01/02 07:56:44;;;;;;;8.77;4.70;;;-1.30;99.90;;;;;;5083490;28;20055;-81
2024/01/02 07:59:11;;;;;;;9.10;5.05;;;-1.30;99.90;;;;;;5095023;28;20476;-82
2024/01/02 08:01:37;;;;;;;8.02;4.47;;;-1.20;99.90;;;;;;5063235;28;20396;-82
2024/01/02 08:04:02;;;;;;;8.93;4.82;;;-1.20;99.90;;;;;;5080071;28;20028;-82
2024/01/02 08:06:28;;;;;;;8.02;4.57;;;-1.20;99.90;;;;;;5118018;28;20479;-81
2024/01/02 08:08:54;;;;;;;7.43;4.30;;;-1.20;99.90;;;;;;5099792;28;20404;-82
2024/01/02 08:11:19;;;;;;;7.20;4.57;;;-1.20;99.90;;;;;;5083061;28;20039;-82
2024/01/02 08:13:45;;;;;;;13.15;5.70;;;-1.10;99.90;;;;;;5066810;28;20053;-82
2024/01/02 08:16:11;;;;;;;10.23;5.35;;;-1.10;99.90;;;;;;5099867;28;20027;-82
2024/01/02 08:18:41;;;;;;;19.55;8.10;;;-1.00;99.90;;;;;;5082867;28;20112;-82
2024/01/02 08:21:07;;;;;;;8.68;3.67;;;-1.00;99.90;;;;;;5100333;28;20050;-82
2024/01/02 08:23:38;;;;;;;8.68;4.00;;;-1.00;99.90;;;;;;5083314;28;20035;-82
2024/01/02 08:26:06;;;;;;;6.57;3.20;;;-1.00;99.90;;;;;;5067397;28;20024;-82
2024/01/02 08:28:32;;;;;;;6.15;3.40;;;-1.00;99.90;;;;;;5099231;28;20039;-83
2024/01/02 08:30:58;;;;;;;5.45;3.22;;;-1.00;99.90;;;;;;5082737;28;20031;-83
2024/01/02 08:33:23;;;;;;;11.57;4.88;;;-0.90;99.90;;;;;;5066202;28;20031;-83
2024/01/02 08:35:50;;;;;;;9.10;4.65;;;-0.90;99.90;;;;;;5082732;28;20063;-83
2024/01/02 08:38:16;;;;;;;7.97;4.35;;;-0.80;99.90;;;;;;5086558;28;20031;-83
2024/01/02 08:40:42;;;;;;;14.98;6.32;;;-0.80;99.90;;;;;;5063011;28;20032;-83
2024/01/02 08:43:07;;;;;;;28.55;10.75;;;-0.80;99.90;;;;;;5062663;28;20036;-83
2024/01/02 08:45:34;;;;;;;24.05;9.55;;;-0.80;99.90;;;;;;5062495;28;20563;-83
2024/01/02 08:47:59;;;;;;;25.58;9.35;;;-0.80;99.90;;;;;;5045969;28;20028;-83
2024/01/02 08:50:25;;;;;;;29.80;12.20;;;-0.70;99.90;;;;;;5062479;28;20162;-82
2024/01/02 08:52:52;;;;;;;36.30;17.80;;;-0.70;99.90;;;;;;5045816;28;20480;-83
2024/01/02 08:55:18;;;;;;;26.67;13.43;;;-0.60;99.90;;;;;;5045807;28;20035;-83
2024/01/02 08:57:43;;;;;;;24.35;13.48;;;-0.60;99.90;;;;;;5079098;28;20397;-83
2024/01/02 09:00:10;;;;;;;35.28;21.48;;;-0.50;99.90;;;;;;5062704;28;20103;-83
2024/01/02 09:02:36;;;;;;;26.50;17.58;;;-0.50;99.90;;;;;;5065045;28;20077;-83
2024/01/02 09:05:02;;;;;;;22.90;15.05;;;-0.50;99.90;;;;;;5117959;28;20051;-83
2024/01/02 09:07:28;;;;;;;19.40;13.00;;;-0.50;99.90;;;;;;5072311;28;20082;-83
2024/01/02 09:09:53;;;;;;;16.55;11.30;;;-0.40;99.90;;;;;;5064344;28;20355;-83
2024/01/02 09:12:19;;;;;;;11.68;9.20;;;-0.30;99.90;;;;;;5047324;28;20469;-83
2024/01/02 09:14:45;;;;;;;7.72;4.68;;;-0.30;99.90;;;;;;5063564;28;20029;-83
2024/01/02 09:17:10;;;;;;;9.07;4.65;;;-0.30;99.90;;;;;;5047036;28;20032;-84
2024/01/02 09:19:36;;;;;;;6.72;4.00;;;-0.20;99.90;;;;;;5046591;28;20083;-84
2024/01/02 09:22:02;;;;;;;7.80;4.60;;;-0.20;99.90;;;;;;5029562;28;20025;-84
2024/01/02 09:24:28;;;;;;;6.18;3.80;;;-0.10;99.90;;;;;;5111188;28;20055;-84
2024/01/02 09:26:57;;;;;;;7.47;3.38;;;-0.10;99.90;;;;;;5101488;28;20440;-84
2024/01/02 09:29:24;;;;;;;6.50;3.38;;;-0.10;99.90;;;;;;5102251;28;20020;-84
2024/01/02 09:31:50;;;;;;;5.72;3.65;;;-0.10;99.90;;;;;;5122435;28;20026;-84
2024/01/02 09:34:16;;;;;;;5.75;3.22;;;-0.10;99.90;;;;;;5119474;28;20076;-84
2024/01/02 09:36:42;;;;;;;7.20;3.10;;;-0.10;99.90;;;;;;5117957;28;20107;-85
2024/01/02 09:39:08;;;;;;;5.22;3.13;;;0.00;99.90;;;;;;5079691;28;20039;-85
2024/01/02 09:42:16;;;;;;;4.88;3.08;;;0.00;99.90;;;;;;5079591;28;20024;-85
2024/01/02 09:45:12;;;;;;;3.63;2.38;;;0.10;99.90;;;;;;5095904;28;20372;-85
2024/01/02 09:47:41;;;;;;;4.90;3.00;;;0.20;99.90;;;;;;5114706;28;20534;-85
2024/01/02 09:50:21;;;;;;;5.47;2.67;;;0.20;99.90;;;;;;5096286;28;20019;-85
2024/01/02 09:53:07;;;;;;;2.38;1.42;;;0.20;99.90;;;;;;5113942;28;20028;-84
2024/01/02 09:55:56;;;;;;;3.95;2.05;;;0.30;99.90;;;;;;5094054;28;20028;-85
2024/01/02 09:58:45;;;;;;;3.90;2.20;;;0.30;99.90;;;;;;5087993;28;20020;-85
2024/01/02 10:01:25;;;;;;;5.05;2.10;;;0.30;99.90;;;;;;5114302;28;20055;-85
2024/01/02 10:04:09;;;;;;;4.00;2.05;;;0.40;99.90;;;;;;5096135;28;20450;-85
2024/01/02 10:07:05;;;;;;;4.90;2.28;;;0.40;99.90;;;;;;5114234;28;20047;-85
2024/01/02 10:09:51;;;;;;;4.55;2.22;;;0.40;99.90;;;;;;5055308;28;1166398;-85
2024/01/02 10:12:46;;;;;;;8.93;3.15;;;0.50;99.90;;;;;;5095000;28;20030;-85
2024/01/02 10:15:30;;;;;;;5.50;2.70;;;0.50;99.90;;;;;;5065142;28;20039;-85
2024/01/02 10:18:25;;;;;;;7.35;3.88;;;0.50;99.90;;;;;;5094494;28;20024;-84
2024/01/02 10:21:03;;;;;;;6.70;3.47;;;0.60;99.90;;;;;;5060475;28;20511;-85
2024/01/02 10:23:54;;;;;;;8.32;3.38;;;0.60;99.90;;;;;;5076281;28;20066;-84
2024/01/02 10:26:22;;;;;;;7.50;3.22;;;0.60;99.90;;;;;;5076444;28;20518;-84
2024/01/02 10:28:49;;;;;;;6.03;3.20;;;0.70;99.90;;;;;;5076347;28;20080;-85
2024/01/02 10:31:30;;;;;;;6.05;2.83;;;0.70;99.90;;;;;;5076316;28;20077;-84
2024/01/02 10:34:30;;;;;;;7.25;3.00;;;0.70;99.90;;;;;;5094377;28;20020;-84
2024/01/02 10:37:05;;;;;;;8.60;3.30;;;0.70;99.90;;;;;;5058735;28;20039;-84
2024/01/02 10:39:43;;;;;;;7.88;3.45;;;0.80;99.90;;;;;;5076513;28;20024;-85
2024/01/02 10:42:18;;;;;;;7.20;2.80;;;0.80;99.90;;;;;;5076658;28;20038;-85
2024/01/02 10:44:49;;;;;;;7.25;3.08;;;0.80;99.90;;;;;;5094303;28;20024;-85
2024/01/02 10:47:26;;;;;;;6.25;2.92;;;0.90;99.90;;;;;;5094208;28;20027;-84
2024/01/02 10:49:53;;;;;;;4.78;2.78;;;0.90;99.90;;;;;;5075970;28;20194;-84
2024/01/02 10:52:35;;;;;;;6.03;2.90;;;0.90;99.90;;;;;;5075078;28;20020;-84
2024/01/02 10:55:08;;;;;;;;;;;1.00;99.90;;;;;;5094519;28;20480;-84
2024/01/02 10:58:01;;;;;;;7.57;2.88;;;1.00;99.90;;;;;;5076129;28;19907;-84
2024/01/02 11:00:31;;;;;;;4.90;2.10;;;1.10;99.90;;;;;;5077032;28;20111;-82
2024/01/02 11:03:04;;;;;;;7.38;4.38;;;1.10;99.90;;;;;;5077752;28;20376;-83
2024/01/02 11:05:33;;;;;;;9.40;3.15;;;1.20;99.90;;;;;;5094927;28;20028;-82
2024/01/02 11:08:32;;;;;;;6.82;3.40;;;1.30;99.90;;;;;;5093275;28;20032;-83
2024/01/02 11:11:04;;;;;;;17.10;8.23;;;1.30;99.90;;;;;;5070112;28;20035;-82
2024/01/02 11:13:34;;;;;;;15.98;7.78;;;1.40;99.90;;;;;;5075848;28;20617;-82
2024/01/02 11:16:03;;;;;;;9.05;4.78;;;1.50;99.90;;;;;;5080110;28;20031;-81
2024/01/02 11:18:34;;;;;;;8.05;3.92;;;1.50;99.90;;;;;;5094478;28;20028;-81
2024/01/02 11:21:04;;;;;;;;;;;1.60;99.90;;;;;;5095328;28;20028;-81
2024/01/02 11:23:32;;;;;;;9.10;2.47;;;1.70;99.90;;;;;;5094641;28;19957;-81
2024/01/02 11:26:25;;;;;;;4.28;2.65;;;1.70;99.90;;;;;;5076657;28;20111;-81
2024/01/02 11:28:52;;;;;;;5.28;2.85;;;1.80;99.90;;;;;;5081817;28;20036;-81
2024/01/02 11:31:21;;;;;;;4.63;2.72;;;1.80;99.90;;;;;;5097391;28;20039;-82
2024/01/02 11:34:11;;;;;;;4.90;3.20;;;1.80;99.90;;;;;;5096004;28;20028;-81
2024/01/02 11:36:58;;;;;;;5.10;2.47;;;1.80;99.90;;;;;;5116406;28;20019;-81
2024/01/02 11:39:36;;;;;;;4.00;2.40;;;1.90;99.90;;;;;;5084718;28;20028;-82
2024/01/02 11:42:17;;;;;;;4.95;2.50;;;1.90;99.90;;;;;;5100096;28;20416;-81
2024/01/02 11:45:08;;;;;;;6.32;2.55;;;1.90;99.90;;;;;;5097191;28;20020;-81
2024/01/02 11:47:45;;;;;;;5.35;2.78;;;2.00;99.90;;;;;;5074223;28;20424;-81
2024/01/02 11:50:15;;;;;;;4.72;2.20;;;2.00;99.90;;;;;;5061352;28;20016;-81
2024/01/02 11:53:02;;;;;;;8.60;2.80;;;2.10;99.90;;;;;;5095421;28;20077;-81
2024/01/02 11:56:00;;;;;;;13.07;6.45;;;2.00;99.90;;;;;;5095164;28;20047;-81
2024/01/02 11:58:31;;;;;;;14.32;7.05;;;2.00;99.90;;;;;;5061707;28;20128;-82
2024/01/02 12:01:36;;;;;;;10.35;5.47;;;2.10;99.90;;;;;;5075493;28;20033;-81
2024/01/02 12:04:14;;;;;;;11.65;5.28;;;2.10;99.90;;;;;;5078107;28;20404;-81
2024/01/02 12:06:48;;;;;;;6.80;3.80;;;2.10;99.90;;;;;;5078452;28;20021;-81
2024/01/02 12:09:19;;;;;;;8.25;3.30;;;2.10;99.90;;;;;;5078171;28;20119;-81
2024/01/02 12:12:05;;;;;;;5.85;2.70;;;2.10;99.90;;;;;;5078162;28;20138;-82
2024/01/02 12:14:44;;;;;;;5.35;2.58;;;2.10;99.90;;;;;;5097756;28;20059;-82
2024/01/02 12:17:13;;;;;;;4.55;2.42;;;2.10;99.90;;;;;;5100567;28;20447;-81
2024/01/02 12:19:40;;;;;;;6.75;3.60;;;2.20;99.90;;;;;;5100507;28;20099;-81
2024/01/02 12:22:07;;;;;;;4.90;2.65;;;2.10;99.90;;;;;;5098956;28;20496;-82
2024/01/02 12:24:34;;;;;;;5.47;3.15;;;2.10;99.90;;;;;;5070000;28;20402;-82
2024/01/02 12:27:05;;;;;;;6.05;3.28;;;2.10;99.90;;;;;;5071527;28;20027;-81
2024/01/02 12:29:51;;;;;;;11.27;3.77;;;2.10;99.90;;;;;;5099814;28;20069;-82
2024/01/02 12:32:30;;;;;;;8.38;3.67;;;2.10;99.90;;;;;;5099000;28;20269;-82
2024/01/02 12:35:05;;;;;;;11.02;4.28;;;2.20;99.90;;;;;;5099772;28;20024;-82
2024/01/02 12:37:49;;;;;;;8.13;4.45;;;2.20;99.90;;;;;;5098932;28;20027;-82
2024/01/02 12:40:18;;;;;;;6.75;3.30;;;2.20;99.90;;;;;;5075763;28;20016;-82
2024/01/02 12:42:51;;;;;;;25.38;13.13;;;2.20;99.90;;;;;;5059164;28;20066;-82
2024/01/02 12:45:22;;;;;;;14.90;8.38;;;2.20;99.90;;;;;;5077415;28;20032;-82
2024/01/02 12:47:50;;;;;;;15.20;7.47;;;2.20;99.90;;;;;;5076866;28;20021;-82
2024/01/02 12:50:18;;;;;;;9.95;5.38;;;2.20;99.90;;;;;;5058870;28;20126;-82
2024/01/02 12:52:50;;;;;;;7.47;4.50;;;2.20;99.90;;;;;;5059768;28;20071;-82
2024/01/02 12:55:19;;;;;;;7.95;3.80;;;2.20;99.90;;;;;;5057962;28;20113;-82